createdAt,value
2023-01-02T00:00:55.092Z,58.75
2023-01-02T00:03:22.253Z,59.20
2023-01-02T00:05:49.317Z,58.99
2023-01-02T00:08:19.023Z,59.30
2023-01-02T00:10:45.922Z,59.51
2023-01-02T00:13:13.415Z,59.59
2023-01-02T00:15:40.331Z,59.31
2023-01-02T00:18:07.328Z,58.97
2023-01-02T00:20:34.754Z,59.03
2023-01-02T00:23:01.957Z,59.04
2023-01-02T00:25:28.818Z,59.48
2023-01-02T00:27:56.742Z,59.56
2023-01-02T00:30:23.699Z,59.49
2023-01-02T00:32:50.769Z,59.39
2023-01-02T00:35:17.729Z,59.76
2023-01-02T00:37:44.710Z,59.94
2023-01-02T00:40:15.222Z,59.85
2023-01-02T00:42:42.859Z,60.02
2023-01-02T00:45:10.901Z,59.94
2023-01-02T00:47:37.873Z,60.02
2023-01-02T00:50:05.829Z,59.89
2023-01-02T00:52:32.809Z,61.26
2023-01-02T00:54:59.697Z,60.26
2023-01-02T00:57:26.680Z,60.20
2023-01-02T00:59:53.871Z,60.44
2023-01-02T01:02:21.040Z,60.81
2023-01-02T01:04:48.029Z,60.29
2023-01-02T01:07:14.967Z,59.84
2023-01-02T01:09:41.863Z,59.47
2023-01-02T01:12:10.085Z,58.91
2023-01-02T01:14:36.889Z,59.07
2023-01-02T01:17:04.043Z,59.64
2023-01-02T01:19:35.127Z,59.85
2023-01-02T01:22:02.448Z,60.00
2023-01-02T01:24:29.487Z,59.74
2023-01-02T01:26:56.589Z,59.85
2023-01-02T01:29:23.643Z,59.93
2023-01-02T01:31:50.827Z,60.32
2023-01-02T01:34:18.078Z,60.19
2023-01-02T01:36:45.164Z,60.71
2023-01-02T01:39:12.182Z,60.52
2023-01-02T01:41:39.302Z,60.62
2023-01-02T01:44:45.300Z,61.14
2023-01-02T01:47:40.279Z,61.37
2023-01-02T01:50:11.501Z,60.84
2023-01-02T01:52:45.745Z,60.60
2023-01-02T01:55:21.360Z,60.79
2023-01-02T01:57:57.476Z,60.90
2023-01-02T02:00:24.561Z,61.04
2023-01-02T02:02:58.466Z,61.13
2023-01-02T02:05:28.319Z,61.02
2023-01-02T02:08:08.541Z,61.24
2023-01-02T02:10:37.539Z,61.20
2023-01-02T02:13:04.975Z,61.26
2023-01-02T02:15:46.415Z,61.39
2023-01-02T02:18:35.259Z,61.50
2023-01-02T02:21:27.220Z,61.35
2023-01-02T02:24:29.563Z,61.66
2023-01-02T02:27:02.616Z,61.32
2023-01-02T02:30:00.650Z,61.39
2023-01-02T02:32:46.560Z,61.42
2023-01-02T02:35:16.310Z,61.16
2023-01-02T02:38:01.721Z,61.15
2023-01-02T02:40:50.267Z,61.29
2023-01-02T02:43:24.530Z,61.39
2023-01-02T02:46:03.615Z,61.16
2023-01-02T02:48:48.565Z,61.06
2023-01-02T02:51:36.040Z,60.28
2023-01-02T02:54:26.339Z,60.90
2023-01-02T02:56:55.464Z,61.31
2023-01-02T02:59:23.718Z,61.08
2023-01-02T03:01:51.068Z,61.80
2023-01-02T03:04:20.519Z,61.75
2023-01-02T03:07:10.900Z,61.75
2023-01-02T03:10:04.778Z,61.53
2023-01-02T03:12:40.488Z,61.19
2023-01-02T03:15:17.735Z,61.09
2023-01-02T03:18:22.341Z,61.15
2023-01-02T03:21:12.922Z,61.09
2023-01-02T03:23:46.685Z,61.56
2023-01-02T03:26:17.954Z,62.00
2023-01-02T03:28:48.949Z,61.92
2023-01-02T03:31:20.149Z,61.86
2023-01-02T03:33:54.725Z,62.00
2023-01-02T03:36:30.662Z,62.05
2023-01-02T03:39:17.122Z,62.30
2023-01-02T03:41:56.079Z,62.31
2023-01-02T03:44:26.780Z,62.02
2023-01-02T03:47:02.541Z,62.20
2023-01-02T03:49:34.581Z,62.69
2023-01-02T03:52:01.667Z,62.98
2023-01-02T03:54:30.173Z,62.47
2023-01-02T03:57:10.361Z,62.43
2023-01-02T03:59:37.379Z,61.86
2023-01-02T04:02:22.866Z,62.69
2023-01-02T04:04:55.763Z,62.51
2023-01-02T04:07:41.829Z,62.48
2023-01-02T04:10:11.394Z,62.61
2023-01-02T04:12:41.287Z,62.60
2023-01-02T04:15:11.987Z,62.23
2023-01-02T04:18:42.967Z,62.60
2023-01-02T04:21:19.217Z,62.37
2023-01-02T04:23:52.385Z,62.61
2023-01-02T04:26:29.687Z,62.75
2023-01-02T04:28:57.060Z,61.81
2023-01-02T04:31:42.525Z,62.15
2023-01-02T04:34:13.909Z,62.35
2023-01-02T04:36:41.748Z,62.70
2023-01-02T04:39:09.000Z,63.12
2023-01-02T04:41:38.098Z,63.17
2023-01-02T04:44:05.679Z,63.17
2023-01-02T04:46:33.080Z,63.35
2023-01-02T04:49:00.140Z,63.06
2023-01-02T04:51:27.456Z,63.42
2023-01-02T04:53:55.068Z,63.27
2023-01-02T04:56:22.479Z,63.30
2023-01-02T04:58:49.885Z,63.68
2023-01-02T05:01:19.309Z,63.23
2023-01-02T05:03:50.248Z,62.95
2023-01-02T05:06:17.541Z,63.40
2023-01-02T05:08:45.052Z,63.54
2023-01-02T05:11:21.422Z,64.17
2023-01-02T05:13:48.681Z,64.27
2023-01-02T05:16:15.735Z,63.92
2023-01-02T05:18:42.861Z,63.78
2023-01-02T05:21:31.254Z,63.41
2023-01-02T05:24:00.712Z,62.97
2023-01-02T05:26:28.382Z,62.43
2023-01-02T05:28:55.679Z,62.64
2023-01-02T05:31:22.650Z,62.48
2023-01-02T05:33:57.700Z,63.00
2023-01-02T05:36:26.151Z,63.14
2023-01-02T05:38:53.633Z,63.57
2023-01-02T05:41:22.031Z,63.77
2023-01-02T05:43:48.961Z,63.62
2023-01-02T05:46:19.717Z,63.63
2023-01-02T05:48:46.975Z,63.59
2023-01-02T05:51:16.656Z,63.96
2023-01-02T05:53:43.741Z,63.66
2023-01-02T05:56:16.321Z,64.09
2023-01-02T05:58:48.474Z,63.88
2023-01-02T06:01:20.890Z,63.70
2023-01-02T06:03:53.127Z,63.48
2023-01-02T06:06:25.755Z,63.41
2023-01-02T06:08:53.331Z,63.08
2023-01-02T06:11:20.492Z,63.48
2023-01-02T06:13:47.747Z,63.87
2023-01-02T06:16:14.702Z,63.93
2023-01-02T06:18:41.711Z,63.74
2023-01-02T06:21:11.371Z,63.85
2023-01-02T06:23:38.678Z,63.56
2023-01-02T06:26:20.257Z,63.54
2023-01-02T06:28:51.175Z,63.54
2023-01-02T06:31:20.003Z,63.66
2023-01-02T06:33:47.249Z,63.79
2023-01-02T06:36:16.650Z,63.58
2023-01-02T06:38:44.552Z,63.85
2023-01-02T06:41:12.083Z,64.32
2023-01-02T06:43:44.507Z,64.33
2023-01-02T06:46:12.710Z,64.24
2023-01-02T06:48:41.119Z,64.35
2023-01-02T06:51:09.759Z,64.43
2023-01-02T06:53:39.269Z,64.50
2023-01-02T06:56:07.034Z,64.41
2023-01-02T06:58:35.797Z,64.69
2023-01-02T07:01:08.642Z,64.68
2023-01-02T07:03:36.083Z,64.75
2023-01-02T07:06:07.578Z,64.90
2023-01-02T07:08:34.949Z,64.79
2023-01-02T07:11:09.100Z,65.40
2023-01-02T07:13:36.189Z,65.20
2023-01-02T07:16:08.686Z,65.45
2023-01-02T07:18:36.739Z,65.25
2023-01-02T07:21:08.013Z,65.31
2023-01-02T07:23:35.400Z,65.56
2023-01-02T07:26:04.504Z,65.25
2023-01-02T07:28:32.221Z,64.42
2023-01-02T07:31:01.022Z,64.06
2023-01-02T07:33:28.978Z,63.99
2023-01-02T07:36:00.364Z,64.49
2023-01-02T07:38:27.850Z,64.40
2023-01-02T07:40:55.620Z,65.15
2023-01-02T07:43:23.431Z,65.44
2023-01-02T07:45:51.140Z,66.35
2023-01-02T07:48:18.872Z,66.17
2023-01-02T07:50:46.126Z,66.42
2023-01-02T07:53:13.433Z,65.91
2023-01-02T07:55:40.540Z,66.01
2023-01-02T07:58:07.951Z,65.72
2023-01-02T08:00:34.958Z,65.25
2023-01-02T08:03:02.487Z,64.38
2023-01-02T08:05:29.526Z,64.38
2023-01-02T08:07:56.470Z,64.40
2023-01-02T08:10:23.474Z,64.32
2023-01-02T08:12:50.417Z,63.56
2023-01-02T08:15:17.441Z,63.05
2023-01-02T08:17:44.463Z,63.26
2023-01-02T08:20:11.816Z,63.33
2023-01-02T08:22:38.878Z,63.68
2023-01-02T08:25:06.610Z,63.31
2023-01-02T08:27:33.592Z,64.29
2023-01-02T08:30:00.520Z,63.97
2023-01-02T08:32:27.624Z,64.85
2023-01-02T08:34:54.667Z,65.01
2023-01-02T08:37:21.799Z,64.70
2023-01-02T08:39:48.797Z,64.28
2023-01-02T08:42:15.935Z,64.43
2023-01-02T08:44:43.559Z,64.19
2023-01-02T08:47:10.617Z,64.15
2023-01-02T08:49:37.647Z,64.08
2023-01-02T08:52:05.182Z,63.81
2023-01-02T08:54:32.326Z,63.96
2023-01-02T08:56:59.352Z,63.49
2023-01-02T08:59:26.769Z,63.86
2023-01-02T09:01:54.377Z,63.54
2023-01-02T09:04:21.605Z,63.99
2023-01-02T09:06:48.562Z,63.53
2023-01-02T09:09:16.950Z,63.80
2023-01-02T09:11:50.930Z,63.90
2023-01-02T09:14:22.409Z,63.84
2023-01-02T09:16:51.130Z,64.01
2023-01-02T09:19:18.897Z,63.83
2023-01-02T09:21:46.025Z,63.86
2023-01-02T09:24:13.082Z,64.06
2023-01-02T09:26:42.665Z,63.91
2023-01-02T09:29:11.218Z,63.72
2023-01-02T09:31:38.843Z,63.56
2023-01-02T09:34:05.859Z,62.96
2023-01-02T09:36:33.231Z,63.29
2023-01-02T09:39:01.868Z,62.61
2023-01-02T09:41:44.440Z,61.92
2023-01-02T09:44:17.647Z,61.81
2023-01-02T09:46:49.645Z,61.91
2023-01-02T09:49:41.432Z,61.42
2023-01-02T09:52:13.950Z,61.36
2023-01-02T09:54:40.978Z,61.27
2023-01-02T09:57:16.762Z,60.90
2023-01-02T09:59:57.886Z,58.84
2023-01-02T10:02:34.142Z,58.66
2023-01-02T10:05:33.178Z,58.80
2023-01-02T10:08:25.098Z,58.58
2023-01-02T10:11:15.184Z,58.09
2023-01-02T10:14:17.370Z,57.75
2023-01-02T10:16:33.317Z,56.38
2023-01-02T10:19:05.622Z,55.99
2023-01-02T10:21:38.697Z,55.57
2023-01-02T10:24:13.807Z,55.09
2023-01-02T10:26:47.349Z,54.04
2023-01-02T10:29:31.921Z,53.52
2023-01-02T10:32:01.283Z,53.02
2023-01-02T10:35:11.083Z,52.59
2023-01-02T10:37:38.160Z,51.99
2023-01-02T10:40:05.675Z,52.25
2023-01-02T10:42:34.166Z,50.56
2023-01-02T10:45:01.340Z,51.11
2023-01-02T10:47:39.183Z,48.53
2023-01-02T10:50:14.708Z,48.66
2023-01-02T10:53:06.010Z,48.53
2023-01-02T10:55:35.757Z,47.58
2023-01-02T10:58:17.362Z,47.85
2023-01-02T11:00:44.378Z,47.54
2023-01-02T11:03:17.230Z,46.63
2023-01-02T11:05:47.557Z,46.79
2023-01-02T11:08:18.071Z,44.54
2023-01-02T11:10:45.484Z,45.69
2023-01-02T11:13:18.181Z,45.13
2023-01-02T11:16:06.319Z,45.14
2023-01-02T11:18:35.327Z,44.53
2023-01-02T11:21:05.239Z,42.21
2023-01-02T11:23:37.887Z,42.44
2023-01-02T11:26:10.493Z,41.89
2023-01-02T11:28:39.958Z,41.77
2023-01-02T11:31:13.894Z,40.98
2023-01-02T11:33:42.859Z,41.42
2023-01-02T11:36:12.633Z,41.11
2023-01-02T11:38:59.235Z,41.42
2023-01-02T11:41:47.949Z,41.51
2023-01-02T11:44:23.649Z,40.58
2023-01-02T11:46:51.248Z,40.55
2023-01-02T11:49:21.396Z,39.83
2023-01-02T11:51:56.564Z,38.59
2023-01-02T11:54:31.262Z,37.70
2023-01-02T11:57:00.354Z,36.30
2023-01-02T11:59:40.991Z,36.30
2023-01-02T12:13:57.291Z,37.28
2023-01-02T12:16:47.850Z,35.72
2023-01-02T12:19:36.391Z,34.86
2023-01-02T12:22:49.982Z,32.40
2023-01-02T12:25:35.438Z,31.32
2023-01-02T12:28:25.913Z,30.59
2023-01-02T12:31:26.091Z,28.69
2023-01-02T12:34:27.401Z,28.31
2023-01-02T12:37:10.569Z,26.93
2023-01-02T12:40:06.536Z,26.03
2023-01-02T12:42:52.340Z,25.26
2023-01-02T12:45:44.649Z,23.74
2023-01-02T12:48:36.160Z,23.02
2023-01-02T12:51:09.044Z,21.83
2023-01-02T12:54:20.516Z,20.85
2023-01-02T12:57:02.911Z,20.15
2023-01-02T13:00:08.440Z,19.16
2023-01-02T13:03:20.182Z,18.84
2023-01-02T13:05:55.658Z,19.09
2023-01-02T13:09:00.759Z,18.59
2023-01-02T13:11:42.680Z,18.24
2023-01-02T13:14:17.579Z,17.31
2023-01-02T13:17:03.541Z,17.57
2023-01-02T13:19:37.371Z,17.33
2023-01-02T13:22:20.117Z,17.47
2023-01-02T13:24:47.898Z,17.54
2023-01-02T13:27:14.849Z,17.65
2023-01-02T13:29:44.447Z,16.52
2023-01-02T13:32:13.739Z,17.02
2023-01-02T13:34:55.435Z,17.86
2023-01-02T13:37:26.209Z,19.03
2023-01-02T13:39:59.480Z,20.83
2023-01-02T13:42:56.105Z,22.15
2023-01-02T13:45:33.109Z,22.52
2023-01-02T13:48:03.370Z,22.92
2023-01-02T13:50:34.999Z,24.96
2023-01-02T13:53:20.809Z,26.37
2023-01-02T13:56:09.258Z,26.19
2023-01-02T13:59:02.259Z,27.56
2023-01-02T14:01:40.895Z,28.97
2023-01-02T14:04:08.012Z,29.82
2023-01-02T14:06:37.942Z,30.81
2023-01-02T14:09:04.877Z,31.07
2023-01-02T14:11:55.322Z,32.68
2023-01-02T14:14:44.910Z,33.48
2023-01-02T14:17:42.765Z,33.62
2023-01-02T14:20:21.093Z,33.99
2023-01-02T14:22:54.051Z,35.33
2023-01-02T14:25:21.983Z,36.06
2023-01-02T14:27:52.590Z,36.79
2023-01-02T14:30:46.245Z,36.71
2023-01-02T14:33:21.900Z,37.32
2023-01-02T14:35:52.610Z,37.77
2023-01-02T14:38:25.687Z,38.18
2023-01-02T14:40:53.180Z,38.54
2023-01-02T14:43:36.108Z,39.61
2023-01-02T14:46:14.891Z,39.65
2023-01-02T14:48:41.792Z,40.20
2023-01-02T14:51:16.379Z,41.09
2023-01-02T14:54:00.439Z,41.07
2023-01-02T14:56:33.350Z,41.29
2023-01-02T14:59:02.118Z,42.23
2023-01-02T15:01:42.379Z,42.10
2023-01-02T15:04:26.490Z,42.93
2023-01-02T15:07:29.802Z,43.33
2023-01-02T15:10:04.442Z,44.07
2023-01-02T15:12:53.029Z,44.38
2023-01-02T15:15:24.865Z,44.48
2023-01-02T15:17:53.910Z,44.83
2023-01-02T15:20:24.534Z,44.78
2023-01-02T15:22:56.385Z,45.74
2023-01-02T15:25:32.402Z,46.01
2023-01-02T15:27:59.464Z,45.93
2023-01-02T15:30:34.630Z,46.42
2023-01-02T15:33:01.698Z,46.48
2023-01-02T15:35:30.882Z,46.80
2023-01-02T15:37:58.071Z,46.84
2023-01-02T15:40:33.230Z,47.35
2023-01-02T15:43:24.637Z,47.68
2023-01-02T15:45:53.191Z,47.56
2023-01-02T15:48:22.851Z,48.32
2023-01-02T15:50:55.327Z,49.32
2023-01-02T15:53:34.733Z,49.75
2023-01-02T15:56:01.770Z,49.34
2023-01-02T15:58:31.560Z,49.95
2023-01-02T16:01:21.573Z,50.04
2023-01-02T16:04:01.477Z,49.99
2023-01-02T16:06:39.326Z,50.25
2023-01-02T16:09:18.832Z,50.19
2023-01-02T16:11:52.282Z,50.72
2023-01-02T16:14:36.963Z,50.51
2023-01-02T16:17:18.039Z,50.47
2023-01-02T16:19:57.924Z,50.72
2023-01-02T16:22:53.908Z,50.79
2023-01-02T16:25:30.330Z,50.87
2023-01-02T16:28:34.856Z,50.78
2023-01-02T16:31:17.157Z,51.27
2023-01-02T16:33:46.057Z,50.99
2023-01-02T16:36:16.031Z,51.03
2023-01-02T16:38:46.067Z,51.07
2023-01-02T16:41:35.620Z,50.88
2023-01-02T16:44:12.648Z,51.37
2023-01-02T16:46:41.120Z,51.53
2023-01-02T16:49:11.924Z,51.87
2023-01-02T16:51:42.920Z,51.96
2023-01-02T16:54:14.121Z,51.94
2023-01-02T16:56:41.161Z,51.84
2023-01-02T16:59:08.081Z,52.19
2023-01-02T17:01:35.657Z,52.22
2023-01-02T17:04:02.758Z,52.00
2023-01-02T17:06:29.763Z,52.38
2023-01-02T17:08:56.750Z,52.56
2023-01-02T17:11:25.031Z,52.72
2023-01-02T17:13:54.595Z,52.84
2023-01-02T17:16:21.747Z,53.35
2023-01-02T17:18:48.736Z,53.64
2023-01-02T17:21:15.908Z,53.69
2023-01-02T17:23:42.917Z,53.46
2023-01-02T17:26:09.869Z,53.66
2023-01-02T17:28:37.107Z,53.37
2023-01-02T17:31:04.378Z,53.64
2023-01-02T17:33:31.360Z,53.78
2023-01-02T17:35:58.378Z,53.78
2023-01-02T17:38:25.618Z,53.30
2023-01-02T17:40:59.105Z,53.58
2023-01-02T17:43:26.702Z,53.52
2023-01-02T17:45:53.992Z,53.68
2023-01-02T17:48:24.568Z,53.80
2023-01-02T17:50:52.689Z,54.03
2023-01-02T17:53:19.678Z,54.17
2023-01-02T17:56:20.591Z,53.88
2023-01-02T17:58:44.192Z,53.83
2023-01-02T18:01:19.849Z,54.55
2023-01-02T18:03:47.269Z,54.23
2023-01-02T18:06:15.236Z,54.30
2023-01-02T18:08:42.746Z,54.84
2023-01-02T18:11:13.853Z,54.84
2023-01-02T18:13:53.133Z,54.87
2023-01-02T18:16:27.170Z,54.72
2023-01-02T18:18:54.315Z,54.61
2023-01-02T18:21:28.778Z,54.69
2023-01-02T18:24:02.288Z,54.35
2023-01-02T18:26:31.164Z,54.59
2023-01-02T18:29:07.481Z,54.27
2023-01-02T18:31:41.905Z,54.97
2023-01-02T18:34:46.668Z,54.67
2023-01-02T18:37:26.369Z,54.67
2023-01-02T18:39:55.148Z,54.64
2023-01-02T18:42:26.818Z,54.82
2023-01-02T18:44:55.622Z,54.73
2023-01-02T18:47:29.802Z,55.07
2023-01-02T18:50:09.089Z,54.82
2023-01-02T18:52:37.252Z,54.71
2023-01-02T18:55:12.980Z,54.98
2023-01-02T18:57:55.681Z,54.88
2023-01-02T19:00:30.895Z,54.96
2023-01-02T19:03:03.726Z,55.03
2023-01-02T19:05:36.520Z,54.97
2023-01-02T19:08:11.322Z,55.41
2023-01-02T19:10:41.746Z,55.67
2023-01-02T19:13:37.932Z,55.69
2023-01-02T19:16:11.383Z,55.63
2023-01-02T19:18:46.406Z,55.88
2023-01-02T19:21:29.694Z,55.89
2023-01-02T19:24:16.494Z,55.62
2023-01-02T19:26:46.263Z,55.50
2023-01-02T19:29:13.462Z,55.34
2023-01-02T19:31:44.964Z,55.10
2023-01-02T19:34:40.783Z,55.18
2023-01-02T19:37:13.831Z,55.09
2023-01-02T19:39:55.923Z,54.58
2023-01-02T19:42:24.836Z,54.57
2023-01-02T19:44:57.183Z,54.61
2023-01-02T19:47:30.331Z,54.30
2023-01-02T19:49:58.189Z,54.97
2023-01-02T19:52:27.262Z,54.61
2023-01-02T19:54:54.655Z,54.73
2023-01-02T19:57:22.922Z,54.85
2023-01-02T19:59:50.543Z,55.03
2023-01-02T20:02:19.821Z,54.76
2023-01-02T20:04:50.271Z,54.66
2023-01-02T20:07:17.413Z,54.96
2023-01-02T20:09:44.877Z,54.75
2023-01-02T20:12:30.508Z,54.69
2023-01-02T20:14:59.050Z,54.46
2023-01-02T20:17:28.679Z,54.50
2023-01-02T20:19:56.082Z,54.53
2023-01-02T20:22:23.192Z,54.64
2023-01-02T20:24:50.232Z,54.86
2023-01-02T20:27:17.248Z,55.45
2023-01-02T20:29:44.153Z,55.62
2023-01-02T20:32:11.142Z,55.84
2023-01-02T20:34:38.474Z,55.84
2023-01-02T20:37:05.951Z,55.83
2023-01-02T20:39:32.884Z,56.02
2023-01-02T20:41:59.822Z,55.68
2023-01-02T20:44:26.845Z,55.85
2023-01-02T20:46:56.364Z,55.99
2023-01-02T20:49:25.601Z,55.94
2023-01-02T20:51:56.161Z,56.21
2023-01-02T20:54:24.009Z,56.57
2023-01-02T20:56:51.352Z,56.15
2023-01-02T20:59:18.351Z,56.03
2023-01-02T21:01:45.561Z,56.45
2023-01-02T21:04:12.904Z,56.88
2023-01-02T21:06:41.322Z,56.77
2023-01-02T21:09:08.501Z,57.09
2023-01-02T21:11:35.601Z,56.98
2023-01-02T21:14:03.152Z,57.15
2023-01-02T21:16:31.121Z,57.10
2023-01-02T21:18:59.900Z,57.69
2023-01-02T21:21:27.224Z,57.06
2023-01-02T21:23:54.250Z,57.29
2023-01-02T21:26:23.707Z,57.65
2023-01-02T21:28:51.666Z,57.81
2023-01-02T21:31:20.288Z,57.80
2023-01-02T21:33:48.001Z,57.76
2023-01-02T21:36:15.939Z,57.55
2023-01-02T21:38:43.972Z,57.93
2023-01-02T21:41:29.408Z,57.22
2023-01-02T21:43:56.459Z,56.90
2023-01-02T21:46:23.570Z,57.28
2023-01-02T21:48:50.544Z,57.32
2023-01-02T21:51:17.491Z,57.41
2023-01-02T21:53:44.464Z,57.17
2023-01-02T21:56:11.492Z,57.62
2023-01-02T21:58:38.482Z,57.81
2023-01-02T22:01:05.637Z,57.84
2023-01-02T22:03:32.695Z,57.88
2023-01-02T22:05:59.718Z,58.46
2023-01-02T22:08:26.749Z,58.58
2023-01-02T22:11:13.622Z,57.80
2023-01-02T22:13:40.657Z,58.28
2023-01-02T22:16:08.356Z,58.46
2023-01-02T22:18:38.336Z,58.89
2023-01-02T22:21:05.571Z,59.05
2023-01-02T22:23:33.381Z,59.12
2023-01-02T22:26:00.524Z,58.90
2023-01-02T22:28:27.730Z,58.47
2023-01-02T22:30:54.836Z,58.76
2023-01-02T22:33:22.150Z,58.67
2023-01-02T22:35:49.367Z,58.85
2023-01-02T22:38:16.611Z,59.02
2023-01-02T22:40:43.530Z,58.93
2023-01-02T22:43:16.820Z,59.19
2023-01-02T22:45:53.312Z,59.26
2023-01-02T22:48:25.633Z,59.20
2023-01-02T22:50:56.719Z,59.29
2023-01-02T22:53:25.943Z,59.51
2023-01-02T22:55:53.388Z,59.00
2023-01-02T22:58:21.740Z,58.97
2023-01-02T23:00:56.740Z,59.08
2023-01-02T23:03:23.757Z,60.65
2023-01-02T23:05:50.657Z,59.94
2023-01-02T23:08:17.651Z,59.38
2023-01-02T23:10:44.650Z,59.43
2023-01-02T23:13:11.599Z,60.47
2023-01-02T23:15:59.809Z,59.82
2023-01-02T23:18:47.243Z,59.24
2023-01-02T23:21:16.080Z,59.20
2023-01-02T23:23:43.329Z,59.59
2023-01-02T23:26:11.092Z,59.88
2023-01-02T23:31:25.164Z,59.65
2023-01-02T23:33:52.133Z,59.96
2023-01-02T23:36:19.067Z,60.13
2023-01-02T23:38:46.080Z,59.83
2023-01-02T23:41:12.961Z,60.42
2023-01-02T23:43:40.053Z,60.50
2023-01-02T23:46:07.604Z,60.88
2023-01-02T23:48:34.550Z,60.86
2023-01-02T23:51:04.138Z,61.03
2023-01-02T23:53:32.326Z,61.21
2023-01-02T23:55:59.372Z,61.30
2023-01-02T23:58:26.532Z,61.39
